Thursday, July 18, 2019, 11:45 PM EDT
Back to Local

KIPT, Williamsport-lycoming County

Location: Montoursville, PA, United States Lat: 41.25
Local Time: 11:45 PM EDT ( 3:45 GMT) Lon: -76.917
Time Zone: US/Eastern Elev: 528 ft

Show me the last for .
Show Decoded

2019-07-18 22:54 METAR KIPT 190254Z AUTO 00000KT 10SM FEW047 SCT060 23/23 A2988 RMK AO2 SLP115
                 60025 T02330228 $ =
2019-07-18 21:54 METAR KIPT 190154Z 00000KT 10SM BKN048 24/23 A2987 RMK AO2 SLP110 T02440228 $ =
2019-07-18 20:54 METAR KIPT 190054Z 000/00KT 10SM SCT055 77/74 A2985 =
2019-07-18 19:54 METAR KIPT 182354Z 14004KT 10SM SCT050 SCT060 BKN100 26/23 A2985 RMK AO2 RAE32
                 SLP102 P0025 60025 T02560233 10322 20256 55002 =
2019-07-18 18:54 METAR KIPT 182254Z 25005KT 10SM -RA SCT050 28/24 A2984 RMK AO2 RAB54 SLP101
                 P0000 T02830239 =
2019-07-18 17:54 METAR KIPT 182154Z 16004KT 10SM SCT045 30/22 A2984 RMK AO2 SLP100 T03000222 =
2019-07-18 16:54 METAR KIPT 182054Z 00000KT 10SM SCT060 31/21 A2985 RMK AO2 SLP103 T03110211
                 56005 =
2019-07-18 15:54 METAR KIPT 181954Z 31004KT 10SM SCT030 31/21 A2985 RMK AO2 SLP104 T03060211 =
2019-07-18 14:54 METAR KIPT 181854Z 00000KT 10SM FEW030 SCT046 31/21 A2986 RMK AO2 SLP104
                 T03060211 =
2019-07-18 14:11 METAR KIPT 181811Z 00000KT 10SM BKN030 BKN038 BKN049 29/22 A2987 RMK AO2
                 T02940217 $ =
2019-07-18 14:04 METAR KIPT 181804Z 22003KT 10SM BKN029 OVC035 29/22 A2987 RMK AO2 T02890217 $ =
2019-07-18 13:54 METAR KIPT 181754Z VRB05KT 10SM BKN031 BKN050 29/22 A2987 RMK AO2 SLP109
                 T02940222 10306 20233 58013 $ =
2019-07-18 12:54 METAR KIPT 181654Z 24004KT 10SM FEW025 SCT060 OVC080 29/22 A2989 RMK AO2 SLP117
                 T02890217 $ =
2019-07-18 11:54 METAR KIPT 181554Z 22003KT 10SM FEW022 OVC050 27/22 A2990 RMK AO2 SLP119
                 T02720217 =
2019-07-18 10:54 METAR KIPT 181454Z 28005KT 10SM SCT025 BKN034 OVC046 26/22 A2991 RMK AO2 SLP122
                 T02610222 56001 =
2019-07-18 09:54 METAR KIPT 181354Z 25006KT 10SM FEW013 OVC022 25/22 A2991 RMK AO2 SLP123
                 T02500222 =
2019-07-18 09:39 METAR KIPT 181339Z 25005KT 10SM SCT009 BKN016 OVC021 25/22 A2990 RMK AO2
                 T02500222 =
2019-07-18 09:25 METAR KIPT 181325Z 25004KT 10SM BKN009 OVC017 26/22 A2990 RMK AO2 CIG 008V014
                 T02560222 =
2019-07-18 09:10 METAR KIPT 181310Z 00000KT 10SM SCT009 BKN013 OVC048 26/22 A2990 RMK AO2
                 T02560222 =
2019-07-18 08:54 METAR KIPT 181254Z 20003KT 10SM SCT011 SCT016 OVC048 24/22 A2990 RMK AO2 SLP123
                 T02440222 =
2019-07-18 08:47 METAR KIPT 181247Z 00000KT 10SM FEW009 SCT014 OVC048 24/22 A2991 RMK AO2
                 T02440222 =
2019-07-18 08:35 METAR KIPT 181235Z 00000KT 10SM FEW005 BKN016 OVC047 24/22 A2991 RMK AO2
                 T02440222 =
2019-07-18 07:54 METAR KIPT 181154Z 00000KT 10SM OVC007 23/22 A2991 RMK AO2 CIG 004V008 SLP124
                 70144 T02330222 10239 20228 53010 =
2019-07-18 07:16 METAR KIPT 181116Z 00000KT 9SM BKN006 OVC011 23/22 A2990 RMK AO2 T02280217 =
2019-07-18 07:04 METAR KIPT 181104Z 00000KT 10SM OVC010 23/22 A2989 RMK AO2 CIG 005V012 T02280217
                 =
2019-07-18 06:54 METAR KIPT 181054Z 00000KT 10SM OVC008 23/22 A2989 RMK AO2 CIG 008V011 SLP119
                 T02280217 =
2019-07-18 05:54 METAR KIPT 180954Z AUTO 00000KT 10SM OVC007 23/22 A2989 RMK AO2 SLP117 T02280217
                 $ =
2019-07-18 04:54 METAR KIPT 180854Z AUTO 35003KT 10SM OVC006 23/22 A2988 RMK AO2 SLP114 T02280217
                 53001 $ =
2019-07-18 03:54 METAR KIPT 180754Z AUTO 00000KT 10SM BKN006 OVC011 23/22 A2986 RMK AO2 CIG
                 006V009 SLP109 T02280217 $ =
2019-07-18 03:23 METAR KIPT 180723Z AUTO 00000KT 10SM FEW006 OVC011 23/22 A2987 RMK AO2 T02280217
                 $ =
2019-07-18 02:54 METAR KIPT 180654Z AUTO 00000KT 10SM OVC011 23/22 A2987 RMK AO2 SLP111 T02330217
                 $ =
2019-07-18 02:14 METAR KIPT 180614Z AUTO 00000KT 10SM BKN012 OVC018 23/22 A2988 RMK AO2 T02280217
                 $ =
2019-07-18 01:54 METAR KIPT 180554Z AUTO 09003KT 10SM BKN008 OVC018 23/22 A2987 RMK AO2 RAE0457
                 CIG 004V011 SLP112 P0000 60024 T02280217 10239 20228 58002 $ =
2019-07-18 01:39 METAR KIPT 180539Z AUTO 00000KT 10SM BKN008 OVC019 23/22 A2987 RMK AO2 RAE0457
                 CIG 004V013 P0000 T02280217 $ =
2019-07-18 01:34 METAR KIPT 180534Z AUTO 00000KT 10SM BKN010 OVC019 23/22 A2987 RMK AO2 RAE0457
                 P0000 T02280217 $ =
2019-07-18 00:54 METAR KIPT 180454Z AUTO 07003KT 8SM -RA BKN009 BKN014 OVC021 23/22 A2988 RMK AO2
                 RAB0356E30B45 CIG 006V012 SLP113 P0001 T02280217 403110217 $ =
2019-07-18 00:42 METAR KIPT 180442Z AUTO 12003KT 9SM FEW007 BKN014 OVC020 23/22 A2988 RMK AO2
                 RAB0356E30 P0000 T02280217 $ =
2019-07-17 23:54 METAR KIPT 180354Z AUTO 00000KT 10SM OVC024 23/22 A2988 RMK AO2 SLP115 T02330217
                 $ =

Support USWX by starting your Amazon purchase here.